Etusivu
METAR-TAF:

METAR-TAF

Lentoasemat :

Marietta, Georgia, Yhdysvallat

Leveyspiiri: 33-55N, Pituuspiiri: 084-31W, korkeus merenpinnasta: 326 m

Tämänhetkinen sää

Tämä raportti tehtiin 53 minuuttia sitten, kello 05.56 UTC
tyyntä
Lämpötila 23°C
Kosteus 73%
Ilmanpaine 1017 hPa
Näkyvyys: 16.1 km
selkeää

METAR: KMGE 170556Z AUTO 00000KT 10SM CLR 23/18 A3002 RMK AO2 SLP155 T02300181 10313 20229 58004 $

Aika: 02:49 (06:49 UTC)

Sääennuste

Tämä raportti tehtiin 1 tunti ja 49 minuuttia sitten, kello 05.00 UTC
Ennuste voimassa 17. päivästä klo 05 UTC - 18. päivään klo 11 UTC
Tuuli 6 kn eri suunnista
Näkyvyys 10 km tai enemmän
selkeää

TAF: KMGE 170500Z 1705/1811 VRB06KT 9999 SKC QNH2995INS TX34/1720Z TN23/1712Z

Säähavainnot ja -ennusteet yli 4000 lentoasemalta (METAR- ja TAF-raportit).

Käytössä olevat sääasemat on merkitty karttaan keltaisilla ja punaisilla pisteillä.

Aseta hiiri pisteen päälle nähdäksesi sääaseman nimen.

Klikkaa sitten nähdäksesi säähavainnot ja -ennusteet.

Kartan vaihtaminen: klikkaa mustalla rastilla varustettuja vihreitä pisteitä, niin voit zoomata sisään; viivalla varustettua vihreää pistettä, niin voit zoomata ulos tai vihreitä nuolia, niin pääset viereisille kartoille.


METAR-TAF: